Time;durP1;ratioP1;P1;durP2;ratioP2;P2;SDS_P1;SDS_P2;PMS_P1;PMS_P2;Temp;Humidity;BMP_temperature;BMP_pressure;BME280_temperature;BME280_humidity;BME280_pressure;Samples;Min_cycle;Max_cycle;Signal;HPM_P1;HPM_P2
2021/12/17 00:04:39;;;;;;;32.70;20.33;;;;;;;8.30;100.00;101327.31;5116123;28;20240;-83
2021/12/17 00:07:11;;;;;;;30.67;19.40;;;;;;;8.32;100.00;101325.53;5115737;28;20206;-84
2021/12/17 00:09:42;;;;;;;34.60;21.03;;;;;;;8.29;100.00;101329.97;5112407;28;20202;-84
2021/12/17 00:12:13;;;;;;;35.93;22.60;;;;;;;8.18;100.00;101327.53;5116988;27;20191;-85
2021/12/17 00:14:50;;;;;;;38.43;21.90;;;;;;;8.27;100.00;101327.38;5115707;27;20195;-85
2021/12/17 00:17:24;;;;;;;35.83;21.37;;;;;;;8.29;100.00;101320.28;5113090;27;20201;-84
2021/12/17 00:20:20;;;;;;;32.83;20.33;;;;;;;8.29;100.00;101325.56;5114341;28;20270;-84
2021/12/17 00:51:00;;;;;;;35.47;20.50;;;;;;;8.22;100.00;101345.09;5115626;27;20278;-84
2021/12/17 00:53:29;;;;;;;34.73;21.57;;;;;;;8.20;100.00;101332.78;5114305;28;20271;-84
2021/12/17 00:55:58;;;;;;;32.43;20.00;;;;;;;8.23;100.00;101320.41;5110478;28;20199;-84
2021/12/17 00:58:26;;;;;;;33.57;19.77;;;;;;;8.26;100.00;101328.28;5115084;28;20223;-84
2021/12/17 01:00:55;;;;;;;35.23;21.20;;;;;;;8.06;100.00;101326.91;5116846;27;20239;-85
2021/12/17 01:03:25;;;;;;;36.57;21.47;;;;;;;8.20;100.00;101332.78;5109877;28;20188;-84
2021/12/17 01:05:54;;;;;;;35.43;21.20;;;;;;;8.18;100.00;101318.75;5115386;28;20200;-85
2021/12/17 01:08:23;;;;;;;35.27;22.97;;;;;;;8.06;100.00;101335.69;5113858;28;20198;-84
2021/12/17 01:10:53;;;;;;;38.00;21.33;;;;;;;8.22;100.00;101334.53;5111069;28;20217;-83
2021/12/17 01:13:22;;;;;;;33.50;19.90;;;;;;;8.25;100.00;101329.16;5113837;28;20198;-84
2021/12/17 01:15:51;;;;;;;30.23;18.03;;;;;;;8.25;100.00;101337.09;5112121;28;20202;-84
2021/12/17 01:18:35;;;;;;;28.13;17.20;;;;;;;8.31;100.00;101336.13;5115118;27;20195;-84
2021/12/17 01:21:23;;;;;;;31.13;19.87;;;;;;;8.20;100.00;101338.06;5109680;28;20260;-84
2021/12/17 01:24:16;;;;;;;34.10;19.37;;;;;;;8.25;100.00;101339.72;5113632;28;20187;-84
2021/12/17 01:35:22;;;;;;;31.67;21.37;;;;;;;8.18;100.00;101339.88;5134385;28;20191;-84
2021/12/17 01:43:32;;;;;;;32.67;19.03;;;;;;;8.16;100.00;101342.53;5114477;27;20274;-84
2021/12/17 01:46:02;;;;;;;30.80;19.97;;;;;;;8.16;100.00;101332.00;5113973;28;20202;-84
2021/12/17 01:48:39;;;;;;;25.73;17.87;;;;;;;8.21;100.00;101337.19;5108644;28;20203;-84
2021/12/17 01:56:57;;;;;;;26.97;17.77;;;;;;;8.27;100.00;101331.78;5116388;27;20202;-84
2021/12/17 01:59:33;;;;;;;25.07;16.63;;;;;;;8.30;100.00;101327.31;5113274;28;20195;-84
2021/12/17 02:02:05;;;;;;;27.20;16.13;;;;;;;8.32;100.00;101327.28;5111124;28;20225;-84
2021/12/17 02:04:35;;;;;;;20.90;14.40;;;;;;;8.25;100.00;101315.09;5113680;28;20782;-84
2021/12/17 02:07:06;;;;;;;23.60;14.93;;;;;;;8.30;100.00;101314.13;5109615;28;20199;-84
2021/12/17 02:12:58;;;;;;;21.17;14.27;;;;;;;8.35;100.00;101311.41;5094881;28;20191;-84
2021/12/17 02:29:45;;;;;;;17.27;11.80;;;;;;;8.24;100.00;101305.44;5113665;28;20203;-84
2021/12/17 02:32:14;;;;;;;18.73;12.67;;;;;;;8.16;100.00;101295.03;5114733;27;20194;-84
2021/12/17 02:35:01;;;;;;;20.73;13.07;;;;;;;8.27;100.00;101295.69;5111761;28;20199;-84
2021/12/17 02:37:33;;;;;;;17.20;12.27;;;;;;;8.30;100.00;101279.81;5112798;28;20223;-84
2021/12/17 02:40:16;;;;;;;18.10;11.70;;;;;;;8.33;100.00;101285.00;5112350;28;20205;-84
2021/12/17 02:45:34;;;;;;;18.70;12.13;;;;;;;8.33;100.00;101279.72;5113626;28;20641;-81
2021/12/17 02:48:06;;;;;;;18.47;12.20;;;;;;;8.41;100.00;101278.75;5116284;28;20230;-84
2021/12/17 02:50:39;;;;;;;19.23;12.67;;;;;;;8.48;100.00;101275.03;5113485;28;20220;-84
2021/12/17 02:53:11;;;;;;;19.67;12.60;;;;;;;8.41;100.00;101274.31;5110228;28;20187;-84
2021/12/17 02:55:41;;;;;;;18.30;11.70;;;;;;;8.44;100.00;101270.75;5113413;28;20249;-84
2021/12/17 02:58:10;;;;;;;16.53;11.13;;;;;;;8.40;100.00;101280.50;5115783;27;20203;-84
2021/12/17 03:00:42;;;;;;;16.83;11.30;;;;;;;8.39;100.00;101267.31;5113191;28;20260;-84
2021/12/17 03:03:14;;;;;;;17.00;11.03;;;;;;;8.39;100.00;101257.63;5112356;28;20258;-84
2021/12/17 03:05:43;;;;;;;17.97;12.00;;;;;;;8.33;100.00;101260.38;5110376;28;20270;-83
2021/12/17 03:08:16;;;;;;;19.77;12.40;;;;;;;8.39;100.00;101254.97;5108376;28;20203;-84
2021/12/17 03:10:48;;;;;;;17.63;11.27;;;;;;;8.25;100.00;101263.16;5106071;28;20188;-84
2021/12/17 03:13:17;;;;;;;19.00;11.87;;;;;;;8.18;100.00;101251.00;5108100;28;20199;-84
2021/12/17 03:15:50;;;;;;;16.63;11.67;;;;;;;8.26;100.00;101248.19;5112770;28;20259;-84
2021/12/17 03:23:51;;;;;;;20.73;12.53;;;;;;;8.25;100.00;101257.03;5111793;28;20204;-84
2021/12/17 03:26:22;;;;;;;16.67;11.60;;;;;;;8.21;100.00;101255.34;5110293;28;20198;-84
2021/12/17 03:28:52;;;;;;;17.03;12.23;;;;;;;8.33;100.00;101257.72;5114401;28;20203;-83
2021/12/17 03:31:22;;;;;;;19.07;12.77;;;;;;;8.14;100.00;101259.00;5113442;28;20195;-84
2021/12/17 03:33:55;;;;;;;18.50;12.90;;;;;;;8.12;100.00;101259.06;5113390;28;20236;-84
2021/12/17 03:36:23;;;;;;;17.53;12.63;;;;;;;8.18;100.00;101261.53;5107226;28;20219;-84
2021/12/17 03:38:53;;;;;;;18.37;11.97;;;;;;;8.23;100.00;101258.84;5109649;28;20191;-84
2021/12/17 03:41:25;;;;;;;16.27;11.33;;;;;;;8.27;100.00;101260.50;5112209;28;20274;-84
2021/12/17 03:43:55;;;;;;;18.93;12.27;;;;;;;8.15;100.00;101253.69;5112960;28;20202;-84
2021/12/17 03:46:24;;;;;;;19.13;12.67;;;;;;;8.42;100.00;101256.72;5116827;28;20194;-83
2021/12/17 03:48:54;;;;;;;16.43;12.27;;;;;;;8.30;100.00;101253.41;5116725;28;20211;-84
2021/12/17 03:51:25;;;;;;;16.03;12.00;;;;;;;8.27;100.00;101260.50;5116699;28;20195;-84
2021/12/17 03:53:57;;;;;;;16.30;12.07;;;;;;;8.30;100.00;101249.88;5115455;28;20248;-83
2021/12/17 03:56:26;;;;;;;18.63;12.87;;;;;;;8.19;100.00;101251.84;5113337;28;20191;-84
2021/12/17 03:58:57;;;;;;;17.97;11.93;;;;;;;8.21;100.00;101253.59;5112501;28;20195;-84
2021/12/17 04:01:27;;;;;;;16.47;11.23;;;;;;;8.21;100.00;101247.44;5116262;28;20250;-84
2021/12/17 04:03:57;;;;;;;16.00;11.17;;;;;;;8.26;100.00;101241.13;5116407;28;20276;-84
2021/12/17 04:06:25;;;;;;;15.47;10.63;;;;;;;8.21;100.00;101237.75;5116577;28;20199;-84
2021/12/17 04:08:56;;;;;;;16.53;11.20;;;;;;;8.23;100.00;101250.91;5110116;28;20259;-84
2021/12/17 04:11:25;;;;;;;16.77;11.37;;;;;;;8.22;100.00;101246.53;5113753;28;20183;-84
2021/12/17 04:13:55;;;;;;;16.87;11.90;;;;;;;8.21;100.00;101250.94;5113250;28;20198;-84
2021/12/17 04:16:27;;;;;;;17.70;11.57;;;;;;;8.20;100.00;101235.09;5112452;28;20294;-84
2021/12/17 04:18:55;;;;;;;17.03;11.47;;;;;;;8.09;100.00;101242.38;5116406;27;20219;-83
2021/12/17 04:21:24;;;;;;;16.37;10.67;;;;;;;8.10;100.00;101241.47;5115915;28;20195;-84
2021/12/17 04:23:55;;;;;;;15.27;10.67;;;;;;;8.15;100.00;101234.34;5114754;28;20233;-84
2021/12/17 04:26:25;;;;;;;13.90;9.93;;;;;;;8.17;100.00;101236.06;5115936;28;20187;-84
2021/12/17 04:28:54;;;;;;;15.73;11.50;;;;;;;8.04;100.00;101231.94;5115716;28;20206;-83
2021/12/17 04:31:27;;;;;;;14.57;10.87;;;;;;;8.11;100.00;101232.69;5115972;28;20195;-84
2021/12/17 04:33:56;;;;;;;18.13;11.77;;;;;;;8.11;100.00;101237.97;5117114;27;20187;-84
2021/12/17 04:36:29;;;;;;;12.87;9.57;;;;;;;8.01;100.00;101243.44;5115685;28;20296;-83
2021/12/17 04:39:00;;;;;;;12.97;9.93;;;;;;;8.04;100.00;101235.44;5111966;28;20633;-84
2021/12/17 04:41:46;;;;;;;12.53;9.73;;;;;;;8.03;100.00;101243.41;5115418;28;20183;-84
2021/12/17 04:44:19;;;;;;;12.53;9.70;;;;;;;8.06;100.00;101251.25;5117653;27;20187;-83
2021/12/17 04:46:53;;;;;;;14.63;9.53;;;;;;;8.14;100.00;101248.47;5113161;28;20190;-84
2021/12/17 04:57:40;;;;;;;15.23;10.80;;;;;;;7.95;100.00;101240.91;5113292;28;20252;-84
2021/12/17 05:00:13;;;;;;;14.03;10.10;;;;;;;8.00;100.00;101236.38;5113515;28;20199;-84
2021/12/17 05:02:45;;;;;;;14.30;9.67;;;;;;;8.03;100.00;101246.03;5113839;27;20219;-84
2021/12/17 05:05:15;;;;;;;12.33;9.50;;;;;;;8.14;100.00;101248.47;5114884;27;20195;-83
2021/12/17 05:07:50;;;;;;;15.47;11.03;;;;;;;8.20;100.00;101243.03;5114789;28;20255;-84
2021/12/17 05:10:28;;;;;;;14.30;10.40;;;;;;;8.00;100.00;101241.66;5109467;28;20202;-84
2021/12/17 05:18:31;;;;;;;14.10;10.10;;;;;;;7.88;100.00;101252.47;5114833;28;20703;-83
2021/12/17 05:21:03;;;;;;;12.13;8.60;;;;;;;8.00;100.00;101254.00;5110061;28;20191;-83
2021/12/17 05:23:37;;;;;;;13.00;9.53;;;;;;;8.00;100.00;101251.34;5112936;28;20339;-84
2021/12/17 05:26:09;;;;;;;15.00;10.47;;;;;;;7.98;100.00;101258.44;5118006;27;20651;-84
2021/12/17 05:28:38;;;;;;;13.13;10.03;;;;;;;7.95;100.00;101258.50;5110758;28;20286;-83
2021/12/17 05:31:06;;;;;;;14.43;9.43;;;;;;;7.92;100.00;101250.66;5114755;28;20206;-84
2021/12/17 05:33:35;;;;;;;13.00;9.53;;;;;;;7.90;100.00;101249.78;5110685;28;20285;-84
2021/12/17 05:36:04;;;;;;;14.23;9.50;;;;;;;7.91;100.00;101241.88;5114340;28;20231;-83
2021/12/17 05:38:32;;;;;;;14.33;9.80;;;;;;;7.99;100.00;101242.56;5050584;28;20263;-83
2021/12/17 05:41:01;;;;;;;12.17;9.10;;;;;;;7.95;100.00;101238.25;5049056;28;20659;-84
2021/12/17 05:43:36;;;;;;;12.37;9.30;;;;;;;7.95;100.00;101240.91;5051510;28;20224;-83
2021/12/17 05:46:09;;;;;;;13.30;9.90;;;;;;;7.81;100.00;101242.91;5048915;28;20203;-84
2021/12/17 05:48:39;;;;;;;14.97;11.00;;;;;;;7.84;100.00;101249.94;5046730;28;20185;-84
2021/12/17 05:51:10;;;;;;;15.00;10.53;;;;;;;7.65;100.00;101249.41;5047724;28;20254;-84
2021/12/17 05:53:39;;;;;;;16.10;11.30;;;;;;;7.59;100.00;101257.41;5050805;28;20216;-84
2021/12/17 05:56:07;;;;;;;16.40;10.97;;;;;;;7.50;100.00;101261.09;5051665;28;20200;-83
2021/12/17 05:58:37;;;;;;;14.33;10.10;;;;;;;7.52;100.00;101256.66;5049937;28;20199;-82
2021/12/17 06:01:05;;;;;;;17.30;11.10;;;;;;;7.46;100.00;101255.00;5054149;28;20192;-83
2021/12/17 06:03:33;;;;;;;15.83;10.30;;;;;;;7.64;100.00;101250.31;5098347;28;20222;-83
2021/12/17 06:06:01;;;;;;;14.83;9.77;;;;;;;7.57;100.00;101251.31;5116696;28;20197;-84
2021/12/17 06:08:29;;;;;;;17.97;10.90;;;;;;;7.54;100.00;101249.59;5120503;28;20187;-83
2021/12/17 06:10:57;;;;;;;16.80;10.57;;;;;;;7.59;100.00;101252.16;5116500;27;20198;-83
2021/12/17 06:13:26;;;;;;;15.50;10.30;;;;;;;7.45;100.00;101248.00;5114049;28;20191;-84
2021/12/17 06:15:55;;;;;;;15.67;10.70;;;;;;;7.52;100.00;101253.13;5113658;28;20195;-84
2021/12/17 06:18:24;;;;;;;14.33;9.93;;;;;;;7.55;100.00;101253.09;5112454;28;20203;-83
2021/12/17 06:20:52;;;;;;;15.83;10.90;;;;;;;7.56;100.00;101257.47;5111143;28;20256;-84
2021/12/17 06:23:20;;;;;;;16.63;10.40;;;;;;;7.52;100.00;101254.00;5111891;27;20218;-84
2021/12/17 06:25:48;;;;;;;15.97;10.43;;;;;;;7.55;100.00;101243.44;5119536;28;20199;-84
2021/12/17 06:28:17;;;;;;;16.40;10.80;;;;;;;7.63;100.00;101236.25;5125603;28;20254;-82
2021/12/17 06:30:46;;;;;;;17.20;10.87;;;;;;;7.69;100.00;101227.34;5115711;28;20191;-83
2021/12/17 06:33:20;;;;;;;16.20;10.77;;;;;;;7.73;100.00;101229.91;5107864;28;20191;-83
2021/12/17 06:35:48;;;;;;;16.00;11.20;;;;;;;7.64;100.00;101234.47;5111500;28;20237;-84
2021/12/17 06:38:17;;;;;;;14.57;10.60;;;;;;;7.54;100.00;101241.69;5112929;28;20198;-84
2021/12/17 06:40:45;;;;;;;15.57;11.27;;;;;;;7.52;100.00;101229.41;5114618;28;20209;-82
2021/12/17 06:43:13;;;;;;;17.80;11.13;;;;;;;7.50;100.00;101241.75;5113925;28;20302;-83
2021/12/17 06:45:52;;;;;;;17.83;11.47;;;;;;;7.48;100.00;101239.16;5109586;28;20199;-83
2021/12/17 06:48:26;;;;;;;16.77;11.93;;;;;;;7.47;100.00;101238.28;5113633;28;20198;-83
2021/12/17 07:21:36;;;;;;;17.33;11.90;;;;;;;7.44;100.00;101240.13;5115394;28;20195;-84
2021/12/17 07:32:32;;;;;;;16.47;11.53;;;;;;;7.39;100.00;101252.50;5115551;28;20206;-84
2021/12/17 07:40:54;;;;;;;13.37;9.23;;;;;;;7.26;100.00;101274.69;5074873;28;20200;-84
2021/12/17 07:46:08;;;;;;;13.13;9.67;;;;;;;7.24;100.00;101284.38;5119124;28;20289;-84
2021/12/17 07:48:37;;;;;;;12.73;9.43;;;;;;;7.19;100.00;101292.38;5113876;28;20187;-83
2021/12/17 07:51:08;;;;;;;15.47;9.83;;;;;;;7.26;100.00;101306.31;5116486;28;20215;-86
2021/12/17 07:53:42;;;;;;;12.87;9.50;;;;;;;7.18;100.00;101301.16;5112460;28;20299;-84
2021/12/17 07:56:13;;;;;;;13.73;9.03;;;;;;;7.19;100.00;101308.19;5111583;28;20198;-84
2021/12/17 07:58:42;;;;;;;10.93;6.97;;;;;;;7.11;100.00;101308.28;5110382;28;20199;-83
2021/12/17 08:01:12;;;;;;;9.77;7.23;;;;;;;7.12;100.00;101306.53;5116494;27;20199;-83
2021/12/17 08:03:42;;;;;;;8.33;6.40;;;;;;;7.12;100.00;101306.53;5116257;27;20211;-83
2021/12/17 08:06:11;;;;;;;10.03;6.53;;;;;;;7.14;100.00;101303.00;5116401;28;20646;-83
2021/12/17 08:08:41;;;;;;;9.17;6.63;;;;;;;7.22;100.00;101301.97;5110618;28;20224;-83
2021/12/17 08:11:09;;;;;;;8.93;6.80;;;;;;;7.22;100.00;101288.81;5115803;28;20238;-83
2021/12/17 08:13:38;;;;;;;11.77;6.93;;;;;;;7.32;100.00;101291.25;5116258;28;20190;-84
2021/12/17 08:16:20;;;;;;;8.50;6.30;;;;;;;7.44;100.00;101277.03;5115863;28;20328;-83
2021/12/17 08:23:06;;;;;;;14.50;9.63;;;;;;;7.50;100.00;101278.69;5118818;28;20195;-83
2021/12/17 08:30:23;;;;;;;7.30;4.90;;;;;;;7.80;100.00;101290.44;5118740;28;20202;-84
2021/12/17 08:32:51;;;;;;;7.57;5.77;;;;;;;7.76;100.00;101281.72;5118384;28;20206;-83
2021/12/17 08:35:22;;;;;;;7.53;5.67;;;;;;;7.73;100.00;101284.44;5122183;28;20195;-84
2021/12/17 08:37:51;;;;;;;8.33;6.00;;;;;;;7.81;100.00;101289.53;5123195;27;20194;-84
2021/12/17 08:40:21;;;;;;;6.67;4.90;;;;;;;7.88;100.00;101292.03;5118841;28;20612;-84
2021/12/17 08:42:50;;;;;;;7.57;5.37;;;;;;;7.92;100.00;101293.75;5116753;28;20209;-83
2021/12/17 08:45:19;;;;;;;6.80;5.50;;;;;;;7.91;100.00;101296.38;5116572;28;20219;-83
2021/12/17 08:47:49;;;;;;;7.63;5.50;;;;;;;7.85;100.00;101283.34;5122599;28;20187;-83
2021/12/17 08:50:19;;;;;;;7.87;5.70;;;;;;;7.92;100.00;101287.59;5121989;27;20203;-83
2021/12/17 08:52:48;;;;;;;10.00;5.87;;;;;;;7.92;100.00;101293.75;5123254;27;20187;-83
2021/12/17 08:55:17;;;;;;;9.33;5.87;;;;;;;7.93;100.00;101295.47;5119378;27;20203;-83
2021/12/17 08:57:48;;;;;;;7.10;5.20;;;;;;;8.00;100.00;101299.72;5118820;28;20665;-84
2021/12/17 09:00:17;;;;;;;8.27;5.90;;;;;;;8.00;100.00;101305.00;5119622;28;20191;-84
2021/12/17 09:02:46;;;;;;;9.37;6.23;;;;;;;7.91;100.00;101299.94;5116212;28;20195;-84
2021/12/17 09:05:14;;;;;;;10.03;6.97;;;;;;;8.00;100.00;101299.72;5116049;28;20245;-84
2021/12/17 09:07:44;;;;;;;9.97;7.53;;;;;;;8.12;100.00;101301.28;5118715;27;20183;-84
2021/12/17 09:10:18;;;;;;;8.23;6.27;;;;;;;8.10;100.00;101310.09;5119335;28;20199;-84
2021/12/17 09:12:49;;;;;;;8.93;6.53;;;;;;;8.16;100.00;101299.44;5114995;28;20202;-84
2021/12/17 09:15:17;;;;;;;8.57;6.80;;;;;;;8.12;100.00;101313.63;5112535;28;20199;-84
2021/12/17 09:17:45;;;;;;;10.37;7.80;;;;;;;8.12;100.00;101306.56;5115759;27;20274;-84
2021/12/17 09:20:13;;;;;;;8.47;6.67;;;;;;;8.23;100.00;101315.13;5108423;28;20194;-84
2021/12/17 09:22:41;;;;;;;9.53;6.43;;;;;;;8.14;100.00;101323.25;5114692;27;20719;-86
2021/12/17 09:25:11;;;;;;;8.90;6.30;;;;;;;8.11;100.00;101325.06;5111233;28;20240;-84
2021/12/17 09:27:39;;;;;;;10.63;7.70;;;;;;;8.11;100.00;101333.00;5110147;28;20274;-84
2021/12/17 09:30:15;;;;;;;8.00;6.00;;;;;;;8.18;100.00;101319.63;5114600;28;20200;-84
2021/12/17 09:32:44;;;;;;;8.80;6.23;;;;;;;8.20;100.00;101327.50;5112404;28;20270;-84
2021/12/17 09:35:16;;;;;;;9.60;6.83;;;;;;;8.22;100.00;101318.69;5114393;28;20195;-84
2021/12/17 09:37:44;;;;;;;21.30;15.40;;;;;;;8.07;100.00;101318.97;5114071;28;20209;-84
2021/12/17 09:40:14;;;;;;;16.20;11.80;;;;;;;8.16;100.00;101324.06;5110183;28;20320;-84
2021/12/17 09:42:44;;;;;;;10.63;6.57;;;;;;;8.24;100.00;101303.69;5117477;28;20243;-84
2021/12/17 09:45:19;;;;;;;15.03;10.27;;;;;;;8.19;100.00;101302.00;5115389;28;20722;-84
2021/12/17 09:47:47;;;;;;;10.57;7.27;;;;;;;8.33;100.00;101310.53;5113224;28;20191;-84
2021/12/17 09:50:22;;;;;;;10.10;7.23;;;;;;;8.47;100.00;101307.66;5111574;28;20199;-83
2021/12/17 09:52:53;;;;;;;12.17;10.27;;;;;;;8.20;100.00;101303.75;5106994;28;20198;-84
2021/12/17 09:55:23;;;;;;;9.77;6.87;;;;;;;8.29;100.00;101301.78;5117340;27;20207;-83
2021/12/17 09:57:53;;;;;;;9.90;6.57;;;;;;;8.32;100.00;101314.97;5115524;27;20206;-83
2021/12/17 10:00:27;;;;;;;8.30;6.30;;;;;;;8.41;100.00;101319.22;5113250;27;20244;-84
2021/12/17 10:03:00;;;;;;;9.83;7.03;;;;;;;8.44;100.00;101320.91;5110962;28;20195;-83
2021/12/17 10:05:34;;;;;;;9.47;6.10;;;;;;;8.54;100.00;101322.47;5114065;28;20217;-83
2021/12/17 10:08:06;;;;;;;9.80;7.20;;;;;;;8.32;100.00;101330.81;5112858;28;20214;-84
2021/12/17 10:10:36;;;;;;;9.70;7.23;;;;;;;8.25;100.00;101333.59;5111389;28;20269;-83
2021/12/17 10:13:11;;;;;;;12.20;7.10;;;;;;;8.34;100.00;101328.13;5113844;28;20191;-83
2021/12/17 10:15:43;;;;;;;10.20;6.83;;;;;;;8.42;100.00;101335.94;5110088;28;20668;-83
2021/12/17 10:18:13;;;;;;;10.23;6.60;;;;;;;8.56;100.00;101328.59;5113909;28;20221;-84
2021/12/17 10:20:54;;;;;;;10.03;7.07;;;;;;;8.54;100.00;101331.25;5109412;28;20233;-84
2021/12/17 10:23:24;;;;;;;9.47;6.37;;;;;;;8.59;100.00;101316.19;5108420;28;20198;-83
2021/12/17 10:25:53;;;;;;;8.57;6.40;;;;;;;8.66;100.00;101310.78;5106631;28;20222;-84
2021/12/17 10:28:21;;;;;;;9.70;6.40;;;;;;;8.66;100.00;101311.63;5113151;28;20195;-84
2021/12/17 10:30:52;;;;;;;9.07;6.27;;;;;;;8.74;100.00;101306.19;5113991;28;20650;-84
2021/12/17 10:33:23;;;;;;;9.70;5.90;;;;;;;8.69;100.00;101300.16;5117826;28;20199;-84
2021/12/17 10:35:54;;;;;;;8.33;5.97;;;;;;;8.77;100.00;101301.69;5108048;28;20727;-84
2021/12/17 10:38:26;;;;;;;10.43;6.50;;;;;;;8.84;100.00;101299.78;5112467;28;20202;-84
2021/12/17 10:41:02;;;;;;;13.07;6.37;;;;;;;8.81;100.00;101297.22;5109803;28;20199;-84
2021/12/17 10:43:35;;;;;;;14.77;8.53;;;;;;;8.37;100.00;101300.81;5113578;28;20198;-83
2021/12/17 10:46:11;;;;;;;14.87;6.47;;;;;;;8.51;100.00;101304.91;5113185;28;20210;-83
2021/12/17 10:51:44;;;;;;;10.07;7.90;;;;;;;8.47;100.00;101297.94;5113596;28;20198;-84
2021/12/17 10:54:19;;;;;;;11.37;7.60;;;;;;;8.24;100.00;101303.69;5112777;28;20223;-84
2021/12/17 10:56:49;;;;;;;9.90;6.17;;;;;;;8.49;100.00;101306.72;5113591;28;20263;-83
2021/12/17 10:59:19;;;;;;;8.27;5.83;;;;;;;8.57;100.00;101304.78;5117933;28;20203;-83
2021/12/17 11:01:54;;;;;;;8.93;5.63;;;;;;;8.71;100.00;101296.56;5114268;28;20236;-83
2021/12/17 11:04:24;;;;;;;8.27;5.83;;;;;;;8.68;100.00;101304.53;5117687;28;20629;-83
2021/12/17 11:06:55;;;;;;;8.50;5.93;;;;;;;8.66;100.00;101310.78;5117961;28;20213;-84
2021/12/17 11:09:41;;;;;;;9.53;5.43;;;;;;;8.71;100.00;101303.63;5116785;28;20202;-83
2021/12/17 11:12:29;;;;;;;10.83;5.83;;;;;;;8.72;100.00;101298.31;5114963;28;20207;-83
2021/12/17 11:15:19;;;;;;;9.10;5.80;;;;;;;8.72;100.00;101295.66;5116004;28;20194;-83
2021/12/17 11:17:51;;;;;;;11.10;7.57;;;;;;;8.63;100.00;101295.00;5119621;27;20207;-83
2021/12/17 11:20:23;;;;;;;9.70;6.10;;;;;;;8.77;100.00;101285.84;5112156;28;20274;-84
2021/12/17 11:22:53;;;;;;;9.10;6.20;;;;;;;8.78;100.00;101284.97;5111096;28;20197;-83
2021/12/17 11:25:23;;;;;;;10.70;6.10;;;;;;;8.85;100.00;101291.84;5110822;28;20210;-83
2021/12/17 11:27:52;;;;;;;8.73;5.77;;;;;;;8.84;100.00;101292.75;5112346;28;20576;-83
2021/12/17 11:30:23;;;;;;;10.93;6.10;;;;;;;8.80;100.00;101293.72;5112380;28;20267;-84
2021/12/17 11:32:56;;;;;;;12.97;6.43;;;;;;;8.79;100.00;101281.41;5106894;28;20203;-83
2021/12/17 11:35:27;;;;;;;9.63;6.73;;;;;;;8.79;100.00;101288.47;5107879;28;20187;-84
2021/12/17 11:37:59;;;;;;;10.53;6.57;;;;;;;8.94;100.00;101288.13;5100704;28;20323;-83
2021/12/17 11:40:32;;;;;;;11.27;6.20;;;;;;;8.93;100.00;101283.72;5108810;28;20273;-83
2021/12/17 11:43:29;;;;;;;9.90;6.47;;;;;;;8.89;100.00;101275.03;5114567;28;20269;-83
2021/12/17 11:46:00;;;;;;;9.70;6.47;;;;;;;9.00;100.00;101280.06;5117324;27;20210;-83
2021/12/17 11:48:33;;;;;;;9.00;5.87;;;;;;;9.02;100.00;101280.88;5111378;28;20213;-83
2021/12/17 11:51:06;;;;;;;10.37;6.93;;;;;;;8.98;100.00;101271.28;5119408;27;20199;-84
2021/12/17 11:53:42;;;;;;;11.93;6.87;;;;;;;8.89;100.00;101259.16;5116233;28;20206;-83
2021/12/17 11:56:11;;;;;;;13.13;7.77;;;;;;;8.92;100.00;101263.50;5112773;28;20205;-83
2021/12/17 11:58:45;;;;;;;13.10;7.57;;;;;;;8.90;100.00;101262.66;5118761;27;20233;-83
2021/12/17 12:01:55;;;;;;;12.10;7.13;;;;;;;8.87;100.00;101271.50;5114789;28;20270;-84
2021/12/17 12:04:45;;;;;;;17.50;11.43;;;;;;;8.92;100.00;101273.19;5117930;27;20203;-83
2021/12/17 12:07:16;;;;;;;10.70;6.67;;;;;;;8.94;100.00;101285.47;5070730;28;20227;-83
2021/12/17 12:10:04;;;;;;;10.20;6.70;;;;;;;8.91;100.00;101282.91;5072393;28;20200;-83
2021/12/17 12:12:58;;;;;;;9.53;6.00;;;;;;;8.87;100.00;101260.94;5070599;28;20199;-83
2021/12/17 12:15:35;;;;;;;9.97;6.60;;;;;;;8.94;100.00;101260.81;5069721;28;20203;-83
2021/12/17 12:18:08;;;;;;;14.70;6.97;;;;;;;8.89;100.00;101274.16;5025770;28;20203;-83
2021/12/17 12:21:08;;;;;;;11.53;7.07;;;;;;;8.92;100.00;101278.50;5048198;28;20267;-83
2021/12/17 12:23:56;;;;;;;10.27;7.13;;;;;;;8.91;100.00;101264.41;4971091;28;20207;-83
2021/12/17 12:26:40;;;;;;;11.93;6.73;;;;;;;8.96;100.00;101269.56;5081256;28;20391;-83
2021/12/17 12:29:16;;;;;;;14.13;6.90;;;;;;;8.84;100.00;101274.25;5076900;28;20229;-83
2021/12/17 12:31:52;;;;;;;12.10;7.30;;;;;;;8.83;100.00;101272.50;5070100;28;20443;-83
2021/12/17 12:34:28;;;;;;;11.07;7.43;;;;;;;8.76;100.00;101270.03;5073440;28;20214;-84
2021/12/17 12:37:30;;;;;;;14.23;6.83;;;;;;;8.87;100.00;101260.06;5071283;28;20308;-82
2021/12/17 12:40:22;;;;;;;14.30;8.43;;;;;;;8.79;100.00;101269.97;5093584;28;20208;-83
2021/12/17 12:42:53;;;;;;;11.27;6.67;;;;;;;8.86;100.00;101258.34;5091797;28;20218;-84
2021/12/17 12:45:22;;;;;;;10.03;6.10;;;;;;;8.80;100.00;101262.00;5092083;28;20202;-83
2021/12/17 12:48:00;;;;;;;11.53;6.73;;;;;;;8.78;100.00;101266.47;5091331;28;20230;-84
2021/12/17 12:50:32;;;;;;;10.57;6.50;;;;;;;8.82;100.00;101267.25;5096185;28;20192;-83
2021/12/17 12:53:10;;;;;;;11.17;7.03;;;;;;;8.83;100.00;101269.88;5095057;28;20681;-83
2021/12/17 12:55:44;;;;;;;9.33;6.70;;;;;;;8.79;100.00;101270.84;5092813;28;20198;-83
2021/12/17 12:58:15;;;;;;;12.00;7.00;;;;;;;8.76;100.00;101272.66;5092036;28;20194;-84
2021/12/17 13:00:47;;;;;;;12.07;6.90;;;;;;;8.73;100.00;101270.09;5094450;28;20200;-83
2021/12/17 13:03:19;;;;;;;10.57;6.53;;;;;;;8.82;100.00;101278.69;5095611;28;20219;-83
2021/12/17 13:05:49;;;;;;;10.77;5.90;;;;;;;8.96;100.00;101273.09;5092695;28;20278;-83
2021/12/17 13:08:21;;;;;;;10.53;6.10;;;;;;;8.99;100.00;101278.31;5087157;28;20356;-83
2021/12/17 13:10:51;;;;;;;8.97;5.80;;;;;;;8.96;100.00;101282.78;5094649;28;20230;-84
2021/12/17 13:13:28;;;;;;;11.50;6.50;;;;;;;8.95;100.00;101271.34;5094861;28;20188;-83
2021/12/17 13:16:12;;;;;;;9.93;6.67;;;;;;;9.02;100.00;101269.44;5092069;28;20187;-83
2021/12/17 13:21:44;;;;;;;11.17;6.33;;;;;;;8.94;100.00;101263.47;5095915;28;20196;-84
2021/12/17 13:24:27;;;;;;;9.87;6.37;;;;;;;8.94;100.00;101256.41;5096686;28;20278;-85
2021/12/17 13:26:59;;;;;;;8.70;5.63;;;;;;;8.99;100.00;101248.38;5097215;28;20677;-84
2021/12/17 13:29:34;;;;;;;11.57;5.93;;;;;;;9.01;100.00;101252.72;5092695;28;20192;-83
2021/12/17 13:32:04;;;;;;;12.47;7.83;;;;;;;9.03;100.00;101255.31;5093204;28;20662;-84
2021/12/17 13:34:38;;;;;;;24.80;16.57;;;;;;;9.04;100.00;101243.84;5095898;27;20258;-83
2021/12/17 13:37:11;;;;;;;27.10;16.27;;;;;;;8.87;100.00;101250.38;5094833;28;20227;-83
2021/12/17 13:39:44;;;;;;;11.60;7.87;;;;;;;8.92;100.00;101247.63;5087109;28;20200;-83
2021/12/17 13:42:16;;;;;;;9.97;6.23;;;;;;;9.05;100.00;101250.84;5096733;28;20650;-83
2021/12/17 13:44:49;;;;;;;10.47;6.37;;;;;;;9.11;100.00;101253.34;5096814;28;20196;-84
2021/12/17 13:47:21;;;;;;;9.50;5.97;;;;;;;9.01;100.00;101249.19;5096928;28;20218;-82
2021/12/17 13:49:52;;;;;;;10.30;6.23;;;;;;;8.89;100.00;101245.94;5094443;28;20196;-84
2021/12/17 13:52:24;;;;;;;11.80;7.17;;;;;;;8.84;100.00;101245.16;5094030;28;20191;-84
2021/12/17 13:54:56;;;;;;;10.60;6.33;;;;;;;8.89;100.00;101247.72;5095564;28;20239;-83
2021/12/17 13:57:27;;;;;;;10.37;6.43;;;;;;;8.93;100.00;101249.38;5101996;28;20200;-83
2021/12/17 14:00:28;;;;;;;8.23;5.70;;;;;;;9.03;100.00;101244.75;5073633;28;20185;-83
2021/12/17 14:02:58;;;;;;;9.27;6.03;;;;;;;8.96;100.00;101245.78;5092268;28;20282;-84
2021/12/17 14:05:30;;;;;;;9.97;6.17;;;;;;;8.97;100.00;101252.81;5088599;28;20249;-83
2021/12/17 14:08:03;;;;;;;10.90;7.07;;;;;;;8.84;100.00;101260.16;5079685;28;20336;-84
2021/12/17 14:10:38;;;;;;;10.33;6.47;;;;;;;8.74;100.00;101259.50;5085689;28;20300;-84
2021/12/17 14:13:18;;;;;;;10.87;6.40;;;;;;;8.91;100.00;101253.84;5084446;28;20195;-84
2021/12/17 14:16:06;;;;;;;8.60;6.07;;;;;;;8.98;100.00;101265.16;5090945;28;20196;-84